createdAt,value
2023-04-16T00:02:01.949Z,1.58
2023-04-16T00:04:28.784Z,2.05
2023-04-16T00:06:55.652Z,1.85
2023-04-16T00:09:22.395Z,1.67
2023-04-16T00:11:49.003Z,1.30
2023-04-16T00:14:15.802Z,1.63
2023-04-16T00:16:42.421Z,1.55
2023-04-16T00:19:09.965Z,1.92
2023-04-16T00:21:36.851Z,1.40
2023-04-16T00:24:03.567Z,1.63
2023-04-16T00:26:30.479Z,2.28
2023-04-16T00:28:57.575Z,2.03
2023-04-16T00:31:32.376Z,1.50
2023-04-16T00:33:59.837Z,2.88
2023-04-16T00:36:27.970Z,1.92
2023-04-16T00:38:55.841Z,1.42
2023-04-16T00:41:24.838Z,1.65
2023-04-16T00:43:51.746Z,1.58
2023-04-16T00:46:21.286Z,2.42
2023-04-16T00:48:48.980Z,2.97
2023-04-16T00:51:16.111Z,1.45
2023-04-16T00:53:44.128Z,1.73
2023-04-16T00:56:12.783Z,1.58
2023-04-16T00:58:40.489Z,2.08
2023-04-16T01:01:07.276Z,2.03
2023-04-16T01:03:43.760Z,1.40
2023-04-16T01:06:11.424Z,1.52
2023-04-16T01:08:38.506Z,2.55
2023-04-16T01:11:05.427Z,3.70
2023-04-16T01:13:33.922Z,2.42
2023-04-16T01:16:02.039Z,1.83
2023-04-16T01:18:28.729Z,1.63
2023-04-16T01:20:55.674Z,2.53
2023-04-16T01:23:22.680Z,4.32
2023-04-16T01:25:49.338Z,2.97
2023-04-16T01:28:16.576Z,2.40
2023-04-16T01:30:43.876Z,1.73
2023-04-16T01:33:11.880Z,2.40
2023-04-16T01:35:39.349Z,3.45
2023-04-16T01:38:07.820Z,2.67
2023-04-16T01:40:38.425Z,2.72
2023-04-16T01:43:05.398Z,5.78
2023-04-16T01:45:33.361Z,2.30
2023-04-16T01:48:00.476Z,6.82
2023-04-16T01:50:28.666Z,3.25
2023-04-16T01:52:55.227Z,2.92
2023-04-16T01:55:22.693Z,2.08
2023-04-16T01:57:49.332Z,2.15
2023-04-16T02:00:16.349Z,6.30
2023-04-16T02:02:43.146Z,3.88
2023-04-16T02:05:10.118Z,3.90
2023-04-16T02:07:36.777Z,3.00
2023-04-16T02:10:04.750Z,4.30
2023-04-16T02:12:31.415Z,3.72
2023-04-16T02:14:58.136Z,3.55
2023-04-16T02:17:24.828Z,4.47
2023-04-16T02:19:52.041Z,2.30
2023-04-16T02:22:19.142Z,2.70
2023-04-16T02:24:46.111Z,2.15
2023-04-16T02:27:12.849Z,3.60
2023-04-16T02:29:40.521Z,1.67
2023-04-16T02:32:07.149Z,3.72
2023-04-16T02:34:34.749Z,2.78
2023-04-16T02:37:01.349Z,3.30
2023-04-16T02:39:27.939Z,3.95
2023-04-16T02:41:54.626Z,2.28
2023-04-16T02:44:21.608Z,3.38
2023-04-16T02:46:48.215Z,3.03
2023-04-16T02:49:14.816Z,3.78
2023-04-16T02:51:41.359Z,4.85
2023-04-16T02:54:07.910Z,3.78
2023-04-16T02:56:36.509Z,2.75
2023-04-16T02:59:03.196Z,4.40
2023-04-16T03:01:29.955Z,4.97
2023-04-16T03:03:56.917Z,4.80
2023-04-16T03:06:23.653Z,5.07
2023-04-16T03:08:50.332Z,4.03
2023-04-16T03:11:17.162Z,3.60
2023-04-16T03:13:43.939Z,3.38
2023-04-16T03:16:10.678Z,4.70
2023-04-16T03:18:37.256Z,4.57
2023-04-16T03:21:04.183Z,3.40
2023-04-16T03:23:30.847Z,3.65
2023-04-16T03:25:57.421Z,4.13
2023-04-16T03:28:25.643Z,4.00
2023-04-16T03:30:53.192Z,3.53
2023-04-16T03:33:21.575Z,3.38
2023-04-16T03:35:56.051Z,3.35
2023-04-16T03:38:23.665Z,3.75
2023-04-16T03:40:50.297Z,4.65
2023-04-16T03:43:16.872Z,4.35
2023-04-16T03:45:47.191Z,4.63
2023-04-16T03:48:14.025Z,3.30
2023-04-16T03:50:41.033Z,5.50
2023-04-16T03:53:08.995Z,4.43
2023-04-16T03:55:35.945Z,4.25
2023-04-16T03:58:03.452Z,5.32
2023-04-16T04:00:32.729Z,4.05
2023-04-16T04:02:59.577Z,4.03
2023-04-16T04:05:26.329Z,3.88
2023-04-16T04:07:53.171Z,3.55
2023-04-16T04:10:19.777Z,4.80
2023-04-16T04:12:46.804Z,5.78
2023-04-16T04:15:14.923Z,4.95
2023-04-16T04:17:41.544Z,5.57
2023-04-16T04:20:09.380Z,6.10
2023-04-16T04:22:36.060Z,6.53
2023-04-16T04:25:02.723Z,5.47
2023-04-16T04:27:29.265Z,6.07
2023-04-16T04:29:56.898Z,6.25
2023-04-16T04:32:25.621Z,6.18
2023-04-16T04:34:52.401Z,6.95
2023-04-16T04:37:19.052Z,7.55
2023-04-16T04:39:45.635Z,7.28
2023-04-16T04:42:12.370Z,7.82
2023-04-16T04:44:39.993Z,6.45
2023-04-16T04:47:06.579Z,6.25
2023-04-16T04:49:33.236Z,6.43
2023-04-16T04:51:59.983Z,6.55
2023-04-16T04:54:26.689Z,8.20
2023-04-16T04:56:53.578Z,6.50
2023-04-16T04:59:24.431Z,7.65
2023-04-16T05:01:51.418Z,6.85
2023-04-16T05:04:18.573Z,6.25
2023-04-16T05:06:45.788Z,9.00
2023-04-16T05:09:12.369Z,7.88
2023-04-16T05:11:39.436Z,6.50
2023-04-16T05:14:07.239Z,8.57
2023-04-16T05:16:36.691Z,7.25
2023-04-16T05:19:03.647Z,7.15
2023-04-16T05:21:30.845Z,8.10
2023-04-16T05:23:57.391Z,6.57
2023-04-16T05:26:24.006Z,5.22
2023-04-16T05:28:50.654Z,6.95
2023-04-16T05:31:17.391Z,5.03
2023-04-16T05:33:45.140Z,7.28
2023-04-16T05:36:12.671Z,5.10
2023-04-16T05:38:40.277Z,6.75
2023-04-16T05:41:08.715Z,5.15
2023-04-16T05:43:35.997Z,6.07
2023-04-16T05:46:02.734Z,7.35
2023-04-16T05:48:29.396Z,7.25
2023-04-16T05:50:56.016Z,5.40
2023-04-16T05:53:22.664Z,5.13
2023-04-16T05:55:49.290Z,5.53
2023-04-16T05:58:15.904Z,6.63
2023-04-16T06:00:42.585Z,4.38
2023-04-16T06:03:09.355Z,4.97
2023-04-16T06:05:36.420Z,5.78
2023-04-16T06:08:03.288Z,4.85
2023-04-16T06:10:30.003Z,5.80
2023-04-16T06:12:56.683Z,6.90
2023-04-16T06:15:23.248Z,8.02
2023-04-16T06:17:50.921Z,5.97
2023-04-16T06:20:17.641Z,5.97
2023-04-16T06:22:44.268Z,6.15
2023-04-16T06:25:12.733Z,7.88
2023-04-16T06:27:39.384Z,6.47
2023-04-16T06:30:11.322Z,6.47
2023-04-16T06:32:38.011Z,4.63
2023-04-16T06:35:05.442Z,6.05
2023-04-16T06:37:32.005Z,6.65
2023-04-16T06:39:58.572Z,5.82
2023-04-16T06:42:25.208Z,10.57
2023-04-16T06:44:52.230Z,5.70
2023-04-16T06:47:19.917Z,10.43
2023-04-16T06:49:47.844Z,5.40
2023-04-16T06:52:14.443Z,19.75
2023-04-16T06:54:41.125Z,5.72
2023-04-16T06:57:07.791Z,5.68
2023-04-16T06:59:34.374Z,4.90
2023-04-16T07:02:01.458Z,5.40
2023-04-16T07:04:28.217Z,6.50
2023-04-16T07:06:54.873Z,6.47
2023-04-16T07:09:21.444Z,6.18
2023-04-16T07:11:48.600Z,4.18
2023-04-16T07:14:15.242Z,5.63
2023-04-16T07:16:41.881Z,7.55
2023-04-16T07:19:08.987Z,5.90
2023-04-16T07:21:36.612Z,6.43
2023-04-16T07:24:03.498Z,5.15
2023-04-16T07:26:31.405Z,4.90
2023-04-16T07:28:58.070Z,3.92
2023-04-16T07:31:24.732Z,4.80
2023-04-16T07:33:51.621Z,5.50
2023-04-16T07:36:18.250Z,4.80
2023-04-16T07:38:46.616Z,5.32
2023-04-16T07:41:13.772Z,5.53
2023-04-16T07:43:40.640Z,6.97
2023-04-16T07:46:07.485Z,4.55
2023-04-16T07:48:34.190Z,5.35
2023-04-16T07:51:01.028Z,5.82
2023-04-16T07:53:27.963Z,6.57
2023-04-16T07:55:55.803Z,4.15
2023-04-16T07:58:22.654Z,6.40
2023-04-16T08:00:50.890Z,5.50
2023-04-16T08:03:18.401Z,4.82
2023-04-16T08:05:46.548Z,5.45
2023-04-16T08:08:13.128Z,6.00
2023-04-16T08:10:39.914Z,6.18
2023-04-16T08:13:06.536Z,4.38
2023-04-16T08:15:33.163Z,4.20
2023-04-16T08:17:59.898Z,4.80
2023-04-16T08:20:26.935Z,7.65
2023-04-16T08:22:54.879Z,5.28
2023-04-16T08:25:23.740Z,4.35
2023-04-16T08:27:50.548Z,4.38
2023-04-16T08:30:17.332Z,4.75
2023-04-16T08:32:44.078Z,4.82
2023-04-16T08:35:10.795Z,4.43
2023-04-16T08:37:37.437Z,6.40
2023-04-16T08:40:04.291Z,5.25
2023-04-16T08:42:41.684Z,8.40
2023-04-16T08:45:13.709Z,8.40
2023-04-16T08:47:43.137Z,6.75
2023-04-16T08:50:12.074Z,4.57
2023-04-16T08:52:46.363Z,4.85
2023-04-16T08:55:17.041Z,5.72
2023-04-16T08:57:57.993Z,5.82
2023-04-16T09:00:24.789Z,6.30
2023-04-16T09:02:52.156Z,6.15
2023-04-16T09:05:25.467Z,5.30
2023-04-16T09:07:53.482Z,5.05
2023-04-16T09:10:20.411Z,4.90
2023-04-16T09:12:47.160Z,4.75
2023-04-16T09:15:14.323Z,4.57
2023-04-16T09:17:41.779Z,5.25
2023-04-16T09:20:11.054Z,5.32
2023-04-16T09:22:38.484Z,5.80
2023-04-16T09:25:05.562Z,4.90
2023-04-16T09:27:34.844Z,5.40
2023-04-16T09:30:01.906Z,5.50
2023-04-16T09:32:29.156Z,5.20
2023-04-16T09:35:02.449Z,5.05
2023-04-16T09:37:31.136Z,5.60
2023-04-16T09:40:05.477Z,5.05
2023-04-16T09:42:34.203Z,5.38
2023-04-16T09:45:04.142Z,8.77
2023-04-16T09:47:41.313Z,5.05
2023-04-16T09:50:11.826Z,6.60
2023-04-16T09:52:39.286Z,4.40
2023-04-16T09:55:07.518Z,6.18
2023-04-16T09:57:38.162Z,6.85
2023-04-16T10:00:07.848Z,5.32
2023-04-16T10:02:36.433Z,6.20
2023-04-16T10:05:03.512Z,5.78
2023-04-16T10:07:34.567Z,5.05
2023-04-16T10:10:16.888Z,6.20
2023-04-16T10:12:46.746Z,4.45
2023-04-16T10:15:23.189Z,5.28
2023-04-16T10:18:07.439Z,4.50
2023-04-16T10:26:48.324Z,5.43
2023-04-16T10:29:26.877Z,5.35
2023-04-16T10:34:35.594Z,4.53
2023-04-16T10:37:02.223Z,4.45
2023-04-16T10:39:32.998Z,5.75
2023-04-16T10:42:12.559Z,4.93
2023-04-16T10:44:43.455Z,4.25
2023-04-16T10:47:13.100Z,4.43
2023-04-16T10:49:43.655Z,5.55
2023-04-16T10:52:12.904Z,4.10
2023-04-16T10:54:41.553Z,4.65
2023-04-16T10:57:17.801Z,3.92
2023-04-16T10:59:45.417Z,5.35
2023-04-16T11:02:18.828Z,3.92
2023-04-16T11:04:47.877Z,5.60
2023-04-16T11:07:20.668Z,7.22
2023-04-16T11:09:56.441Z,5.50
2023-04-16T11:12:41.494Z,4.95
2023-04-16T11:15:20.365Z,5.32
2023-04-16T11:17:51.868Z,7.63
2023-04-16T11:20:21.033Z,5.82
2023-04-16T11:22:49.567Z,5.15
2023-04-16T11:25:24.408Z,6.88
2023-04-16T11:27:52.809Z,6.28
2023-04-16T11:30:34.755Z,4.97
2023-04-16T11:33:05.860Z,4.75
2023-04-16T11:35:32.502Z,5.07
2023-04-16T11:37:59.547Z,7.28
2023-04-16T11:40:30.635Z,6.53
2023-04-16T11:43:15.442Z,5.55
2023-04-16T11:46:16.233Z,5.93
2023-04-16T11:48:55.469Z,5.95
2023-04-16T11:51:23.596Z,6.90
2023-04-16T11:53:56.335Z,7.30
2023-04-16T11:56:32.606Z,5.38
2023-04-16T11:59:13.857Z,5.55
2023-04-16T12:01:46.510Z,5.70
2023-04-16T12:04:21.609Z,4.97
2023-04-16T12:07:15.794Z,6.32
2023-04-16T12:09:44.466Z,6.30
2023-04-16T12:12:32.317Z,6.20
2023-04-16T12:15:05.733Z,5.45
2023-04-16T12:17:34.032Z,6.88
2023-04-16T12:20:11.807Z,7.80
2023-04-16T12:22:40.934Z,5.13
2023-04-16T12:25:11.992Z,5.18
2023-04-16T12:27:54.096Z,6.35
2023-04-16T12:30:23.546Z,6.25
2023-04-16T12:33:11.593Z,6.03
2023-04-16T12:35:38.422Z,6.47
2023-04-16T12:38:05.994Z,5.18
2023-04-16T12:40:33.454Z,7.07
2023-04-16T12:43:00.254Z,6.20
2023-04-16T12:45:26.994Z,7.10
2023-04-16T12:47:53.868Z,6.45
2023-04-16T12:50:20.476Z,6.50
2023-04-16T12:52:47.130Z,6.80
2023-04-16T12:55:14.304Z,5.55
2023-04-16T12:57:42.705Z,5.70
2023-04-16T13:00:10.911Z,5.50
2023-04-16T13:02:38.050Z,8.02
2023-04-16T13:05:05.367Z,4.82
2023-04-16T13:07:35.595Z,5.00
2023-04-16T13:10:02.623Z,5.18
2023-04-16T13:12:29.678Z,5.88
2023-04-16T13:14:57.735Z,5.50
2023-04-16T13:17:24.479Z,5.45
2023-04-16T13:19:51.184Z,5.65
2023-04-16T13:22:18.200Z,7.75
2023-04-16T13:24:44.836Z,5.20
2023-04-16T13:27:12.376Z,5.68
2023-04-16T13:29:39.119Z,6.32
2023-04-16T13:32:06.281Z,5.95
2023-04-16T13:34:33.076Z,6.07
2023-04-16T13:36:59.693Z,5.60
2023-04-16T13:39:26.294Z,6.80
2023-04-16T13:41:54.830Z,6.63
2023-04-16T13:44:21.577Z,7.38
2023-04-16T13:46:49.795Z,6.47
2023-04-16T13:49:16.684Z,6.00
2023-04-16T13:51:44.952Z,6.72
2023-04-16T13:54:11.712Z,6.97
2023-04-16T13:56:38.554Z,7.45
2023-04-16T13:59:05.540Z,7.18
2023-04-16T14:01:34.541Z,7.00
2023-04-16T17:29:38.927Z,10.77
2023-04-16T17:32:07.193Z,11.75
2023-04-16T17:34:35.901Z,13.27
2023-04-16T17:37:03.827Z,11.38
2023-04-16T17:39:30.509Z,12.10
2023-04-16T17:41:58.665Z,10.50
2023-04-16T17:44:27.606Z,12.13
2023-04-16T17:46:54.670Z,11.18
2023-04-16T17:49:22.930Z,12.57
2023-04-16T17:51:52.868Z,11.20
2023-04-16T17:54:20.017Z,10.32
2023-04-16T17:56:47.669Z,12.98
2023-04-16T17:59:14.534Z,13.13
2023-04-16T18:01:41.733Z,12.25
2023-04-16T18:04:09.471Z,11.77
2023-04-16T18:06:36.328Z,15.65
2023-04-16T18:09:07.596Z,10.68
2023-04-16T18:11:36.407Z,11.50
2023-04-16T18:14:05.438Z,10.68
2023-04-16T18:16:33.442Z,11.65
2023-04-16T18:19:00.184Z,12.73
2023-04-16T18:21:27.520Z,14.50
2023-04-16T18:23:54.240Z,12.00
2023-04-16T18:26:22.669Z,13.50
2023-04-16T18:28:49.774Z,11.43
2023-04-16T18:31:20.533Z,10.05
2023-04-16T18:33:57.611Z,13.23
2023-04-16T18:36:27.988Z,12.77
2023-04-16T18:39:02.279Z,10.98
2023-04-16T18:41:31.014Z,14.25
2023-04-16T18:43:57.881Z,12.00
2023-04-16T18:46:25.481Z,10.93
2023-04-16T18:48:52.465Z,13.30
2023-04-16T18:51:19.409Z,12.52
2023-04-16T18:53:46.110Z,11.85
2023-04-16T18:56:13.132Z,13.07
2023-04-16T18:58:40.154Z,10.98
2023-04-16T19:01:11.386Z,13.55
2023-04-16T19:03:38.860Z,11.82
2023-04-16T19:06:06.492Z,11.50
2023-04-16T19:08:33.191Z,12.90
2023-04-16T19:11:01.158Z,13.13
2023-04-16T19:13:30.531Z,12.10
2023-04-16T19:16:06.279Z,11.68
2023-04-16T19:18:33.224Z,13.27
2023-04-16T19:21:00.964Z,13.48
2023-04-16T19:23:29.309Z,13.57
2023-04-16T19:25:57.092Z,11.20
2023-04-16T19:28:26.352Z,11.45
2023-04-16T19:30:54.042Z,11.80
2023-04-16T19:33:23.024Z,11.10
2023-04-16T19:35:49.765Z,14.77
2023-04-16T19:38:17.187Z,15.48
2023-04-16T19:40:45.872Z,12.80
2023-04-16T19:43:13.746Z,16.13
2023-04-16T19:45:45.200Z,15.00
2023-04-16T19:48:12.413Z,13.88
2023-04-16T19:50:40.838Z,16.55
2023-04-16T19:53:08.270Z,13.77
2023-04-16T19:55:35.088Z,12.68
2023-04-16T19:58:06.176Z,15.82
2023-04-16T20:00:35.990Z,12.02
2023-04-16T20:03:03.540Z,13.00
2023-04-16T20:05:31.968Z,12.90
2023-04-16T20:07:59.694Z,17.50
2023-04-16T20:10:27.109Z,16.55
2023-04-16T20:12:54.345Z,12.43
2023-04-16T20:15:21.768Z,14.90
2023-04-16T20:17:48.555Z,14.23
2023-04-16T20:20:16.478Z,12.90
2023-04-16T20:22:43.856Z,20.88
2023-04-16T20:25:14.367Z,19.98
2023-04-16T20:27:41.080Z,14.07
2023-04-16T20:30:08.339Z,15.50
2023-04-16T20:32:34.917Z,17.08
2023-04-16T20:35:04.030Z,16.60
2023-04-16T20:37:32.468Z,17.88
2023-04-16T20:39:59.369Z,19.27
2023-04-16T20:42:27.656Z,20.90
2023-04-16T20:44:56.701Z,16.85
2023-04-16T20:47:23.637Z,20.08
2023-04-16T20:49:52.710Z,17.35
2023-04-16T20:52:19.732Z,25.30
2023-04-16T20:54:56.887Z,20.73
2023-04-16T20:57:28.630Z,18.27
2023-04-16T20:59:58.562Z,17.45
2023-04-16T21:02:29.423Z,21.08
2023-04-16T21:04:56.410Z,16.70
2023-04-16T21:07:23.002Z,18.88
2023-04-16T21:09:49.771Z,19.40
2023-04-16T21:12:16.732Z,21.95
2023-04-16T21:14:43.356Z,19.17
2023-04-16T21:17:10.104Z,18.50
2023-04-16T21:19:36.922Z,17.15
2023-04-16T21:22:03.600Z,17.17
2023-04-16T21:24:32.857Z,16.98
2023-04-16T21:26:59.459Z,17.35
2023-04-16T21:29:26.350Z,14.02
2023-04-16T21:31:53.604Z,11.82
2023-04-16T21:34:22.027Z,13.27
2023-04-16T21:36:52.459Z,12.38
2023-04-16T21:39:21.592Z,18.63
2023-04-16T21:41:48.272Z,15.38
2023-04-16T21:44:15.437Z,15.27
2023-04-16T21:46:42.166Z,15.50
2023-04-16T21:49:09.484Z,13.15
2023-04-16T21:51:37.201Z,16.40
2023-04-16T21:54:04.969Z,16.77
2023-04-16T21:56:31.635Z,14.73
2023-04-16T21:58:58.197Z,16.80
2023-04-16T22:01:25.034Z,16.70
2023-04-16T22:03:52.213Z,16.95
2023-04-16T22:06:20.486Z,15.65
2023-04-16T22:08:49.887Z,16.10
2023-04-16T22:11:33.347Z,18.38
2023-04-16T22:14:00.304Z,15.48
2023-04-16T22:16:26.938Z,14.10
2023-04-16T22:18:55.017Z,17.25
2023-04-16T22:21:21.709Z,15.63
2023-04-16T22:23:48.298Z,18.27
2023-04-16T22:26:14.932Z,14.75
2023-04-16T22:28:41.581Z,14.07
2023-04-16T22:31:08.230Z,14.20
2023-04-16T22:33:36.167Z,19.95
2023-04-16T22:36:02.767Z,16.90
2023-04-16T22:38:29.457Z,15.85
2023-04-16T22:40:56.017Z,21.15
2023-04-16T22:43:23.134Z,23.85
2023-04-16T22:45:49.763Z,18.98
2023-04-16T22:48:16.460Z,19.58
2023-04-16T22:50:48.815Z,18.45
2023-04-16T22:53:15.397Z,20.25
2023-04-16T22:55:42.020Z,16.33
2023-04-16T22:58:08.746Z,20.85
2023-04-16T23:00:35.443Z,22.33
2023-04-16T23:03:02.129Z,20.50
2023-04-16T23:05:29.160Z,27.52
2023-04-16T23:07:56.008Z,19.45
2023-04-16T23:10:22.674Z,21.23
2023-04-16T23:12:49.382Z,21.60
2023-04-16T23:15:16.187Z,18.98
2023-04-16T23:17:43.397Z,20.23
2023-04-16T23:20:10.744Z,19.90
2023-04-16T23:22:37.378Z,21.42
2023-04-16T23:25:04.230Z,19.75
2023-04-16T23:27:32.573Z,20.90
2023-04-16T23:29:59.372Z,20.65
2023-04-16T23:32:26.037Z,21.50
2023-04-16T23:34:52.629Z,22.42
2023-04-16T23:37:19.251Z,21.73
2023-04-16T23:39:45.880Z,22.25
2023-04-16T23:42:12.669Z,21.85
2023-04-16T23:44:39.536Z,18.42
2023-04-16T23:47:06.233Z,19.90
2023-04-16T23:49:33.932Z,21.05
2023-04-16T23:52:00.798Z,17.73
2023-04-16T23:54:28.565Z,20.77
2023-04-16T23:56:55.262Z,18.45
2023-04-16T23:59:21.846Z,17.05
